sensor_id;sensor_type;location;lat;lon;timestamp;temperature;humidity
326;DHT22;150;52.352;14.058;2023-08-06T00:01:15;20.00;47.90
326;DHT22;150;52.352;14.058;2023-08-06T00:03:44;20.00;47.10
326;DHT22;150;52.352;14.058;2023-08-06T00:06:10;20.00;47.00
326;DHT22;150;52.352;14.058;2023-08-06T00:08:37;20.00;46.60
326;DHT22;150;52.352;14.058;2023-08-06T00:11:03;20.00;46.70
326;DHT22;150;52.352;14.058;2023-08-06T00:13:30;19.80;46.50
326;DHT22;150;52.352;14.058;2023-08-06T00:16:09;19.90;47.20
326;DHT22;150;52.352;14.058;2023-08-06T00:18:36;19.90;47.60
326;DHT22;150;52.352;14.058;2023-08-06T00:21:03;19.80;46.80
326;DHT22;150;52.352;14.058;2023-08-06T00:23:29;19.80;46.80
326;DHT22;150;52.352;14.058;2023-08-06T00:25:56;19.80;47.30
326;DHT22;150;52.352;14.058;2023-08-06T00:28:23;19.80;47.10
326;DHT22;150;52.352;14.058;2023-08-06T00:30:52;19.80;47.20
326;DHT22;150;52.352;14.058;2023-08-06T00:33:20;19.80;47.40
326;DHT22;150;52.352;14.058;2023-08-06T00:35:47;19.80;47.60
326;DHT22;150;52.352;14.058;2023-08-06T00:38:14;19.90;47.70
326;DHT22;150;52.352;14.058;2023-08-06T00:40:41;19.90;47.40
326;DHT22;150;52.352;14.058;2023-08-06T00:43:08;19.90;47.40
326;DHT22;150;52.352;14.058;2023-08-06T00:45:36;19.90;47.40
326;DHT22;150;52.352;14.058;2023-08-06T00:48:04;19.90;47.70
326;DHT22;150;52.352;14.058;2023-08-06T00:50:33;19.90;47.80
326;DHT22;150;52.352;14.058;2023-08-06T00:52:59;20.00;48.10
326;DHT22;150;52.352;14.058;2023-08-06T00:55:26;20.00;47.60
326;DHT22;150;52.352;14.058;2023-08-06T00:57:53;20.00;47.60
326;DHT22;150;52.352;14.058;2023-08-06T01:00:25;19.90;47.30
326;DHT22;150;52.352;14.058;2023-08-06T01:02:52;19.90;46.90
326;DHT22;150;52.352;14.058;2023-08-06T01:05:20;19.80;46.80
326;DHT22;150;52.352;14.058;2023-08-06T01:08:08;19.80;47.10
326;DHT22;150;52.352;14.058;2023-08-06T01:10:49;19.80;46.20
326;DHT22;150;52.352;14.058;2023-08-06T01:13:23;19.70;46.40
326;DHT22;150;52.352;14.058;2023-08-06T01:15:55;19.70;46.90
326;DHT22;150;52.352;14.058;2023-08-06T01:18:23;19.70;46.50
326;DHT22;150;52.352;14.058;2023-08-06T01:20:51;19.70;47.20
326;DHT22;150;52.352;14.058;2023-08-06T01:23:18;19.60;47.50
326;DHT22;150;52.352;14.058;2023-08-06T01:25:51;19.60;47.60
326;DHT22;150;52.352;14.058;2023-08-06T01:28:25;19.60;47.90
326;DHT22;150;52.352;14.058;2023-08-06T01:30:55;19.60;48.40
326;DHT22;150;52.352;14.058;2023-08-06T01:33:27;19.60;48.80
326;DHT22;150;52.352;14.058;2023-08-06T01:35:57;19.60;49.00
326;DHT22;150;52.352;14.058;2023-08-06T01:38:25;19.60;48.90
326;DHT22;150;52.352;14.058;2023-08-06T01:40:53;19.60;48.80
326;DHT22;150;52.352;14.058;2023-08-06T01:43:20;19.60;48.80
326;DHT22;150;52.352;14.058;2023-08-06T01:45:46;19.60;48.60
326;DHT22;150;52.352;14.058;2023-08-06T01:48:13;19.60;48.80
326;DHT22;150;52.352;14.058;2023-08-06T01:50:40;19.60;48.60
326;DHT22;150;52.352;14.058;2023-08-06T01:53:08;19.60;48.40
326;DHT22;150;52.352;14.058;2023-08-06T01:55:34;19.60;48.60
326;DHT22;150;52.352;14.058;2023-08-06T01:58:01;19.60;48.60
326;DHT22;150;52.352;14.058;2023-08-06T02:00:27;19.60;49.10
326;DHT22;150;52.352;14.058;2023-08-06T02:02:54;19.60;49.30
326;DHT22;150;52.352;14.058;2023-08-06T02:05:21;19.60;49.00
326;DHT22;150;52.352;14.058;2023-08-06T02:07:47;19.60;48.70
326;DHT22;150;52.352;14.058;2023-08-06T02:10:16;19.60;48.70
326;DHT22;150;52.352;14.058;2023-08-06T02:12:43;19.50;49.50
326;DHT22;150;52.352;14.058;2023-08-06T02:15:09;19.50;48.70
326;DHT22;150;52.352;14.058;2023-08-06T02:17:36;19.50;48.70
326;DHT22;150;52.352;14.058;2023-08-06T02:20:04;19.50;48.90
326;DHT22;150;52.352;14.058;2023-08-06T02:22:31;19.50;49.10
326;DHT22;150;52.352;14.058;2023-08-06T02:24:58;19.50;49.30
326;DHT22;150;52.352;14.058;2023-08-06T02:27:26;19.50;49.40
326;DHT22;150;52.352;14.058;2023-08-06T02:29:52;19.50;49.50
326;DHT22;150;52.352;14.058;2023-08-06T02:32:19;19.50;49.70
326;DHT22;150;52.352;14.058;2023-08-06T02:34:46;19.50;49.80
326;DHT22;150;52.352;14.058;2023-08-06T02:37:12;19.60;49.90
326;DHT22;150;52.352;14.058;2023-08-06T02:39:39;19.50;49.70
326;DHT22;150;52.352;14.058;2023-08-06T02:42:06;19.60;49.50
326;DHT22;150;52.352;14.058;2023-08-06T02:44:35;19.60;49.50
326;DHT22;150;52.352;14.058;2023-08-06T02:47:02;19.60;49.60
326;DHT22;150;52.352;14.058;2023-08-06T02:49:28;19.60;49.90
326;DHT22;150;52.352;14.058;2023-08-06T02:51:55;19.50;49.70
326;DHT22;150;52.352;14.058;2023-08-06T02:54:22;19.50;49.30
326;DHT22;150;52.352;14.058;2023-08-06T02:56:48;19.50;49.10
326;DHT22;150;52.352;14.058;2023-08-06T02:59:15;19.50;48.80
326;DHT22;150;52.352;14.058;2023-08-06T03:01:43;19.50;48.80
326;DHT22;150;52.352;14.058;2023-08-06T03:04:10;19.50;49.00
326;DHT22;150;52.352;14.058;2023-08-06T03:06:36;19.50;48.40
326;DHT22;150;52.352;14.058;2023-08-06T03:09:03;19.50;48.50
326;DHT22;150;52.352;14.058;2023-08-06T03:11:29;19.40;48.60
326;DHT22;150;52.352;14.058;2023-08-06T03:13:56;19.40;49.20
326;DHT22;150;52.352;14.058;2023-08-06T03:16:23;19.40;48.60
326;DHT22;150;52.352;14.058;2023-08-06T03:18:51;19.40;48.90
326;DHT22;150;52.352;14.058;2023-08-06T03:21:17;19.40;49.00
326;DHT22;150;52.352;14.058;2023-08-06T03:23:47;19.40;49.30
326;DHT22;150;52.352;14.058;2023-08-06T03:26:13;19.40;49.10
326;DHT22;150;52.352;14.058;2023-08-06T03:28:40;19.40;49.10
326;DHT22;150;52.352;14.058;2023-08-06T03:31:07;19.40;49.20
326;DHT22;150;52.352;14.058;2023-08-06T03:33:34;19.40;49.20
326;DHT22;150;52.352;14.058;2023-08-06T03:36:02;19.40;49.50
326;DHT22;150;52.352;14.058;2023-08-06T03:38:29;19.30;49.40
326;DHT22;150;52.352;14.058;2023-08-06T03:40:55;19.30;49.70
326;DHT22;150;52.352;14.058;2023-08-06T03:43:22;19.30;49.60
326;DHT22;150;52.352;14.058;2023-08-06T03:45:48;19.30;49.40
326;DHT22;150;52.352;14.058;2023-08-06T03:48:15;19.30;49.40
326;DHT22;150;52.352;14.058;2023-08-06T03:50:42;19.30;48.90
326;DHT22;150;52.352;14.058;2023-08-06T03:53:10;19.30;49.10
326;DHT22;150;52.352;14.058;2023-08-06T03:55:36;19.30;49.10
326;DHT22;150;52.352;14.058;2023-08-06T03:58:03;19.30;49.40
326;DHT22;150;52.352;14.058;2023-08-06T04:00:29;19.30;49.80
326;DHT22;150;52.352;14.058;2023-08-06T04:02:56;19.30;50.00
326;DHT22;150;52.352;14.058;2023-08-06T04:05:23;19.30;50.00
326;DHT22;150;52.352;14.058;2023-08-06T04:07:49;19.30;49.60
326;DHT22;150;52.352;14.058;2023-08-06T04:10:17;19.30;49.50
326;DHT22;150;52.352;14.058;2023-08-06T04:12:44;19.20;49.40
326;DHT22;150;52.352;14.058;2023-08-06T04:15:11;19.30;49.60
326;DHT22;150;52.352;14.058;2023-08-06T04:17:37;19.30;49.40
326;DHT22;150;52.352;14.058;2023-08-06T04:20:05;19.30;49.40
326;DHT22;150;52.352;14.058;2023-08-06T04:22:32;19.20;49.60
326;DHT22;150;52.352;14.058;2023-08-06T04:24:59;19.20;49.70
326;DHT22;150;52.352;14.058;2023-08-06T04:27:27;19.30;50.10
326;DHT22;150;52.352;14.058;2023-08-06T04:29:54;19.20;50.50
326;DHT22;150;52.352;14.058;2023-08-06T04:32:20;19.30;50.30
326;DHT22;150;52.352;14.058;2023-08-06T04:34:47;19.30;50.50
326;DHT22;150;52.352;14.058;2023-08-06T04:37:14;19.30;50.60
326;DHT22;150;52.352;14.058;2023-08-06T04:39:41;19.20;50.40
326;DHT22;150;52.352;14.058;2023-08-06T04:42:07;19.20;50.60
326;DHT22;150;52.352;14.058;2023-08-06T04:44:35;19.20;50.50
326;DHT22;150;52.352;14.058;2023-08-06T04:47:02;19.20;50.70
326;DHT22;150;52.352;14.058;2023-08-06T04:49:29;19.20;51.00
326;DHT22;150;52.352;14.058;2023-08-06T04:51:55;19.20;51.20
326;DHT22;150;52.352;14.058;2023-08-06T04:54:22;19.20;51.20
326;DHT22;150;52.352;14.058;2023-08-06T04:56:49;19.20;51.20
326;DHT22;150;52.352;14.058;2023-08-06T04:59:15;19.20;50.40
326;DHT22;150;52.352;14.058;2023-08-06T05:01:43;19.10;50.50
326;DHT22;150;52.352;14.058;2023-08-06T05:04:10;19.10;51.10
326;DHT22;150;52.352;14.058;2023-08-06T05:06:37;19.10;51.10
326;DHT22;150;52.352;14.058;2023-08-06T05:09:05;19.10;51.10
326;DHT22;150;52.352;14.058;2023-08-06T05:11:32;19.10;51.10
326;DHT22;150;52.352;14.058;2023-08-06T05:13:59;19.10;51.10
326;DHT22;150;52.352;14.058;2023-08-06T05:16:25;19.20;51.20
326;DHT22;150;52.352;14.058;2023-08-06T05:18:53;19.20;51.20
326;DHT22;150;52.352;14.058;2023-08-06T05:21:20;19.20;51.20
326;DHT22;150;52.352;14.058;2023-08-06T05:23:47;19.50;51.50
326;DHT22;150;52.352;14.058;2023-08-06T05:26:13;19.20;51.20
326;DHT22;150;52.352;14.058;2023-08-06T05:28:43;19.20;51.20
326;DHT22;150;52.352;14.058;2023-08-06T05:31:10;19.10;51.10
326;DHT22;150;52.352;14.058;2023-08-06T05:33:37;19.10;51.10
326;DHT22;150;52.352;14.058;2023-08-06T05:36:05;19.10;51.10
326;DHT22;150;52.352;14.058;2023-08-06T05:38:32;19.10;51.10
326;DHT22;150;52.352;14.058;2023-08-06T05:40:58;19.10;51.10
326;DHT22;150;52.352;14.058;2023-08-06T05:43:25;19.20;51.20
326;DHT22;150;52.352;14.058;2023-08-06T05:45:52;19.20;50.40
326;DHT22;150;52.352;14.058;2023-08-06T05:48:18;19.10;51.10
326;DHT22;150;52.352;14.058;2023-08-06T05:50:45;19.20;51.20
326;DHT22;150;52.352;14.058;2023-08-06T05:53:13;19.20;51.20
326;DHT22;150;52.352;14.058;2023-08-06T05:55:40;19.20;51.20
326;DHT22;150;52.352;14.058;2023-08-06T05:58:06;19.20;51.10
326;DHT22;150;52.352;14.058;2023-08-06T06:00:33;19.20;51.20
326;DHT22;150;52.352;14.058;2023-08-06T06:03:00;19.30;51.10
326;DHT22;150;52.352;14.058;2023-08-06T06:05:27;19.30;51.10
326;DHT22;150;52.352;14.058;2023-08-06T06:07:54;19.30;50.90
326;DHT22;150;52.352;14.058;2023-08-06T06:10:22;19.30;50.60
326;DHT22;150;52.352;14.058;2023-08-06T06:12:48;19.20;50.20
326;DHT22;150;52.352;14.058;2023-08-06T06:15:15;19.30;50.30
326;DHT22;150;52.352;14.058;2023-08-06T06:17:42;19.20;50.60
326;DHT22;150;52.352;14.058;2023-08-06T06:20:09;19.20;51.20
326;DHT22;150;52.352;14.058;2023-08-06T06:22:35;19.20;51.20
326;DHT22;150;52.352;14.058;2023-08-06T06:25:02;19.30;51.30
326;DHT22;150;52.352;14.058;2023-08-06T06:27:31;19.30;50.40
326;DHT22;150;52.352;14.058;2023-08-06T06:29:57;19.30;50.30
326;DHT22;150;52.352;14.058;2023-08-06T06:32:24;19.30;50.40
326;DHT22;150;52.352;14.058;2023-08-06T06:34:51;19.30;50.70
326;DHT22;150;52.352;14.058;2023-08-06T06:37:18;19.30;50.60
326;DHT22;150;52.352;14.058;2023-08-06T06:39:44;19.30;50.80
326;DHT22;150;52.352;14.058;2023-08-06T06:42:11;19.30;50.90
326;DHT22;150;52.352;14.058;2023-08-06T06:44:39;19.30;50.50
326;DHT22;150;52.352;14.058;2023-08-06T06:47:06;19.30;50.60
326;DHT22;150;52.352;14.058;2023-08-06T06:49:32;19.30;49.80
326;DHT22;150;52.352;14.058;2023-08-06T06:51:59;19.30;50.70
326;DHT22;150;52.352;14.058;2023-08-06T06:54:25;19.30;51.30
326;DHT22;150;52.352;14.058;2023-08-06T06:56:52;19.30;51.30
326;DHT22;150;52.352;14.058;2023-08-06T06:59:19;19.30;50.90
326;DHT22;150;52.352;14.058;2023-08-06T07:01:47;19.40;50.50
326;DHT22;150;52.352;14.058;2023-08-06T07:04:13;19.40;50.30
326;DHT22;150;52.352;14.058;2023-08-06T07:06:40;19.40;50.50
326;DHT22;150;52.352;14.058;2023-08-06T07:09:06;19.40;50.40
326;DHT22;150;52.352;14.058;2023-08-06T07:11:33;19.40;50.60
326;DHT22;150;52.352;14.058;2023-08-06T07:14:00;19.40;50.60
326;DHT22;150;52.352;14.058;2023-08-06T07:16:27;19.70;51.70
326;DHT22;150;52.352;14.058;2023-08-06T07:18:55;19.30;51.30
326;DHT22;150;52.352;14.058;2023-08-06T07:21:22;19.40;51.50
326;DHT22;150;52.352;14.058;2023-08-06T07:23:49;19.40;51.40
326;DHT22;150;52.352;14.058;2023-08-06T07:26:16;19.40;51.40
326;DHT22;150;52.352;14.058;2023-08-06T07:28:42;19.40;51.40
326;DHT22;150;52.352;14.058;2023-08-06T07:31:09;19.50;51.50
326;DHT22;150;52.352;14.058;2023-08-06T07:33:36;19.50;51.10
326;DHT22;150;52.352;14.058;2023-08-06T07:36:09;19.50;51.50
326;DHT22;150;52.352;14.058;2023-08-06T07:38:36;19.50;51.20
326;DHT22;150;52.352;14.058;2023-08-06T07:41:03;19.50;51.20
326;DHT22;150;52.352;14.058;2023-08-06T07:43:30;19.60;51.50
326;DHT22;150;52.352;14.058;2023-08-06T07:45:58;19.60;51.50
326;DHT22;150;52.352;14.058;2023-08-06T07:48:24;19.60;50.90
326;DHT22;150;52.352;14.058;2023-08-06T07:50:51;19.60;51.00
326;DHT22;150;52.352;14.058;2023-08-06T07:53:20;19.60;50.80
326;DHT22;150;52.352;14.058;2023-08-06T07:55:51;19.50;50.80
326;DHT22;150;52.352;14.058;2023-08-06T07:58:18;19.60;51.50
326;DHT22;150;52.352;14.058;2023-08-06T08:00:45;19.60;51.50
326;DHT22;150;52.352;14.058;2023-08-06T08:03:12;19.60;51.60
326;DHT22;150;52.352;14.058;2023-08-06T08:05:39;19.60;51.60
326;DHT22;150;52.352;14.058;2023-08-06T08:08:06;19.60;51.50
326;DHT22;150;52.352;14.058;2023-08-06T08:10:34;19.60;52.30
326;DHT22;150;52.352;14.058;2023-08-06T08:13:02;19.60;52.40
326;DHT22;150;52.352;14.058;2023-08-06T08:15:30;19.70;52.20
326;DHT22;150;52.352;14.058;2023-08-06T08:17:57;19.70;52.20
326;DHT22;150;52.352;14.058;2023-08-06T08:20:24;19.70;51.60
326;DHT22;150;52.352;14.058;2023-08-06T08:22:53;19.60;51.60
326;DHT22;150;52.352;14.058;2023-08-06T08:25:19;19.60;52.00
326;DHT22;150;52.352;14.058;2023-08-06T08:27:47;19.60;51.60
326;DHT22;150;52.352;14.058;2023-08-06T08:30:14;19.60;52.00
326;DHT22;150;52.352;14.058;2023-08-06T08:32:40;19.70;51.60
326;DHT22;150;52.352;14.058;2023-08-06T08:35:08;19.60;51.90
326;DHT22;150;52.352;14.058;2023-08-06T08:37:36;19.60;52.20
326;DHT22;150;52.352;14.058;2023-08-06T08:40:03;19.60;52.60
326;DHT22;150;52.352;14.058;2023-08-06T08:42:30;19.60;53.40
326;DHT22;150;52.352;14.058;2023-08-06T08:44:58;19.60;52.90
326;DHT22;150;52.352;14.058;2023-08-06T08:47:26;19.50;53.00
326;DHT22;150;52.352;14.058;2023-08-06T08:49:54;19.50;52.90
326;DHT22;150;52.352;14.058;2023-08-06T08:52:21;19.60;52.70
326;DHT22;150;52.352;14.058;2023-08-06T08:54:49;19.60;52.80
326;DHT22;150;52.352;14.058;2023-08-06T08:57:18;19.60;52.60
326;DHT22;150;52.352;14.058;2023-08-06T08:59:45;19.60;52.40
326;DHT22;150;52.352;14.058;2023-08-06T09:02:13;19.70;53.20
326;DHT22;150;52.352;14.058;2023-08-06T09:04:41;19.80;52.10
326;DHT22;150;52.352;14.058;2023-08-06T09:07:11;19.80;51.70
326;DHT22;150;52.352;14.058;2023-08-06T09:09:40;19.90;51.80
326;DHT22;150;52.352;14.058;2023-08-06T09:12:12;19.80;51.80
326;DHT22;150;52.352;14.058;2023-08-06T09:14:39;19.80;51.70
326;DHT22;150;52.352;14.058;2023-08-06T09:17:07;19.80;51.80
326;DHT22;150;52.352;14.058;2023-08-06T09:19:41;19.80;51.90
326;DHT22;150;52.352;14.058;2023-08-06T09:22:12;19.90;52.20
326;DHT22;150;52.352;14.058;2023-08-06T09:24:39;20.00;52.20
326;DHT22;150;52.352;14.058;2023-08-06T09:27:10;20.10;52.00
326;DHT22;150;52.352;14.058;2023-08-06T09:29:43;20.00;51.20
326;DHT22;150;52.352;14.058;2023-08-06T09:32:11;20.00;51.90
326;DHT22;150;52.352;14.058;2023-08-06T09:37:09;20.00;51.90
326;DHT22;150;52.352;14.058;2023-08-06T09:39:37;20.00;51.90
326;DHT22;150;52.352;14.058;2023-08-06T09:42:04;20.00;51.90
326;DHT22;150;52.352;14.058;2023-08-06T09:44:32;20.10;52.50
326;DHT22;150;52.352;14.058;2023-08-06T09:47:00;20.20;53.20
326;DHT22;150;52.352;14.058;2023-08-06T09:49:28;20.30;52.20
326;DHT22;150;52.352;14.058;2023-08-06T09:52:10;20.30;52.20
326;DHT22;150;52.352;14.058;2023-08-06T09:54:37;20.30;52.20
326;DHT22;150;52.352;14.058;2023-08-06T09:57:05;20.40;52.30
326;DHT22;150;52.352;14.058;2023-08-06T09:59:32;20.30;51.50
326;DHT22;150;52.352;14.058;2023-08-06T10:01:59;20.30;52.20
326;DHT22;150;52.352;14.058;2023-08-06T10:04:26;20.30;52.20
326;DHT22;150;52.352;14.058;2023-08-06T10:06:58;20.30;51.80
326;DHT22;150;52.352;14.058;2023-08-06T10:09:27;20.30;52.20
326;DHT22;150;52.352;14.058;2023-08-06T10:11:54;20.30;52.20
326;DHT22;150;52.352;14.058;2023-08-06T10:14:27;20.40;52.30
326;DHT22;150;52.352;14.058;2023-08-06T10:16:57;20.30;51.00
326;DHT22;150;52.352;14.058;2023-08-06T10:19:25;20.40;51.90
326;DHT22;150;52.352;14.058;2023-08-06T10:22:11;20.20;52.10
326;DHT22;150;52.352;14.058;2023-08-06T10:24:53;20.20;52.10
326;DHT22;150;52.352;14.058;2023-08-06T10:27:29;20.20;52.10
326;DHT22;150;52.352;14.058;2023-08-06T10:30:23;20.20;52.80
326;DHT22;150;52.352;14.058;2023-08-06T10:32:51;20.20;52.30
326;DHT22;150;52.352;14.058;2023-08-06T10:35:40;20.20;52.10
326;DHT22;150;52.352;14.058;2023-08-06T10:38:10;20.20;52.10
326;DHT22;150;52.352;14.058;2023-08-06T10:40:39;20.20;52.10
326;DHT22;150;52.352;14.058;2023-08-06T10:43:07;20.20;52.20
326;DHT22;150;52.352;14.058;2023-08-06T10:45:36;20.20;52.10
326;DHT22;150;52.352;14.058;2023-08-06T10:48:04;20.10;52.00
326;DHT22;150;52.352;14.058;2023-08-06T10:50:31;20.20;52.10
326;DHT22;150;52.352;14.058;2023-08-06T10:53:04;20.20;52.30
326;DHT22;150;52.352;14.058;2023-08-06T10:55:31;20.20;52.70
326;DHT22;150;52.352;14.058;2023-08-06T10:57:59;20.10;52.00
326;DHT22;150;52.352;14.058;2023-08-06T11:00:26;20.10;52.40
326;DHT22;150;52.352;14.058;2023-08-06T11:02:53;20.20;53.10
326;DHT22;150;52.352;14.058;2023-08-06T11:05:20;20.30;53.10
326;DHT22;150;52.352;14.058;2023-08-06T11:07:47;20.30;53.20
326;DHT22;150;52.352;14.058;2023-08-06T11:10:14;20.40;53.20
326;DHT22;150;52.352;14.058;2023-08-06T11:12:41;20.30;52.40
326;DHT22;150;52.352;14.058;2023-08-06T11:15:10;20.40;52.30
326;DHT22;150;52.352;14.058;2023-08-06T11:17:37;20.40;51.40
326;DHT22;150;52.352;14.058;2023-08-06T11:24:09;20.40;52.00
326;DHT22;150;52.352;14.058;2023-08-06T11:33:54;20.30;51.10
326;DHT22;150;52.352;14.058;2023-08-06T11:37:43;20.30;50.80
326;DHT22;150;52.352;14.058;2023-08-06T11:40:09;20.10;51.50
326;DHT22;150;52.352;14.058;2023-08-06T11:42:37;20.10;52.10
326;DHT22;150;52.352;14.058;2023-08-06T11:45:23;20.10;52.00
326;DHT22;150;52.352;14.058;2023-08-06T11:48:14;20.10;52.40
326;DHT22;150;52.352;14.058;2023-08-06T11:50:48;20.30;52.20
326;DHT22;150;52.352;14.058;2023-08-06T11:53:26;20.20;52.10
326;DHT22;150;52.352;14.058;2023-08-06T11:56:09;20.20;52.60
326;DHT22;150;52.352;14.058;2023-08-06T11:58:35;20.20;52.40
326;DHT22;150;52.352;14.058;2023-08-06T12:01:05;20.30;52.90
326;DHT22;150;52.352;14.058;2023-08-06T12:03:39;20.30;52.20
326;DHT22;150;52.352;14.058;2023-08-06T12:06:06;20.20;52.20
326;DHT22;150;52.352;14.058;2023-08-06T12:08:33;20.70;52.70
326;DHT22;150;52.352;14.058;2023-08-06T12:11:00;20.20;52.10
326;DHT22;150;52.352;14.058;2023-08-06T12:13:29;20.20;52.20
326;DHT22;150;52.352;14.058;2023-08-06T12:15:55;20.20;52.40
326;DHT22;150;52.352;14.058;2023-08-06T12:18:25;20.20;52.70
326;DHT22;150;52.352;14.058;2023-08-06T12:20:51;20.10;52.00
326;DHT22;150;52.352;14.058;2023-08-06T12:23:18;20.10;52.20
326;DHT22;150;52.352;14.058;2023-08-06T12:25:45;20.00;52.00
326;DHT22;150;52.352;14.058;2023-08-06T12:28:11;20.20;52.60
326;DHT22;150;52.352;14.058;2023-08-06T12:30:40;20.20;52.10
326;DHT22;150;52.352;14.058;2023-08-06T12:33:08;20.20;51.90
326;DHT22;150;52.352;14.058;2023-08-06T12:35:35;20.20;52.10
326;DHT22;150;52.352;14.058;2023-08-06T12:38:02;20.20;52.10
326;DHT22;150;52.352;14.058;2023-08-06T12:40:29;20.20;52.10
326;DHT22;150;52.352;14.058;2023-08-06T12:42:56;20.20;51.00
326;DHT22;150;52.352;14.058;2023-08-06T12:45:24;20.20;51.30
326;DHT22;150;52.352;14.058;2023-08-06T12:47:52;20.20;52.10
326;DHT22;150;52.352;14.058;2023-08-06T12:50:19;20.20;51.40
326;DHT22;150;52.352;14.058;2023-08-06T12:52:46;20.20;51.50
326;DHT22;150;52.352;14.058;2023-08-06T12:55:12;20.20;52.10
326;DHT22;150;52.352;14.058;2023-08-06T12:57:39;20.20;52.10
326;DHT22;150;52.352;14.058;2023-08-06T13:00:07;20.20;52.10
326;DHT22;150;52.352;14.058;2023-08-06T13:02:34;20.10;52.00
326;DHT22;150;52.352;14.058;2023-08-06T13:05:02;20.10;52.10
326;DHT22;150;52.352;14.058;2023-08-06T13:07:31;20.20;52.20
326;DHT22;150;52.352;14.058;2023-08-06T13:09:58;20.20;52.10
326;DHT22;150;52.352;14.058;2023-08-06T13:12:24;20.20;52.10
326;DHT22;150;52.352;14.058;2023-08-06T13:14:51;20.20;52.10
326;DHT22;150;52.352;14.058;2023-08-06T13:17:18;20.20;52.20
326;DHT22;150;52.352;14.058;2023-08-06T13:19:45;20.20;52.10
326;DHT22;150;52.352;14.058;2023-08-06T13:22:13;20.00;52.80
326;DHT22;150;52.352;14.058;2023-08-06T13:24:40;19.90;53.60
326;DHT22;150;52.352;14.058;2023-08-06T13:27:06;20.00;53.60
326;DHT22;150;52.352;14.058;2023-08-06T13:29:35;20.60;54.10
326;DHT22;150;52.352;14.058;2023-08-06T13:32:02;20.00;54.00
326;DHT22;150;52.352;14.058;2023-08-06T13:34:28;20.10;53.90
326;DHT22;150;52.352;14.058;2023-08-06T13:36:55;20.00;53.60
326;DHT22;150;52.352;14.058;2023-08-06T13:39:25;20.00;54.00
326;DHT22;150;52.352;14.058;2023-08-06T13:41:52;20.00;53.60
326;DHT22;150;52.352;14.058;2023-08-06T13:44:18;20.00;54.30
326;DHT22;150;52.352;14.058;2023-08-06T13:46:45;20.00;54.70
326;DHT22;150;52.352;14.058;2023-08-06T13:49:12;20.10;54.60
326;DHT22;150;52.352;14.058;2023-08-06T13:51:38;20.10;54.60
326;DHT22;150;52.352;14.058;2023-08-06T13:54:05;20.20;54.80
326;DHT22;150;52.352;14.058;2023-08-06T13:56:36;20.20;54.10
326;DHT22;150;52.352;14.058;2023-08-06T13:59:03;20.10;54.10
326;DHT22;150;52.352;14.058;2023-08-06T14:01:30;20.20;53.40
326;DHT22;150;52.352;14.058;2023-08-06T14:03:57;20.10;53.50
326;DHT22;150;52.352;14.058;2023-08-06T14:06:24;20.00;53.00
326;DHT22;150;52.352;14.058;2023-08-06T14:08:50;19.90;53.20
326;DHT22;150;52.352;14.058;2023-08-06T14:11:17;19.90;53.60
326;DHT22;150;52.352;14.058;2023-08-06T14:13:45;19.90;53.80
326;DHT22;150;52.352;14.058;2023-08-06T14:16:12;19.90;54.10
326;DHT22;150;52.352;14.058;2023-08-06T14:18:38;20.00;54.60
326;DHT22;150;52.352;14.058;2023-08-06T14:21:06;20.00;54.40
326;DHT22;150;52.352;14.058;2023-08-06T14:23:33;20.10;53.30
326;DHT22;150;52.352;14.058;2023-08-06T14:26:00;20.10;53.30
326;DHT22;150;52.352;14.058;2023-08-06T14:28:27;20.10;54.10
326;DHT22;150;52.352;14.058;2023-08-06T14:30:55;20.10;54.10
326;DHT22;150;52.352;14.058;2023-08-06T14:33:21;20.10;53.60
326;DHT22;150;52.352;14.058;2023-08-06T14:35:48;20.10;53.90
326;DHT22;150;52.352;14.058;2023-08-06T14:38:15;20.20;53.70
326;DHT22;150;52.352;14.058;2023-08-06T14:40:43;20.20;53.60
326;DHT22;150;52.352;14.058;2023-08-06T14:43:10;20.20;53.10
326;DHT22;150;52.352;14.058;2023-08-06T14:45:37;20.10;52.00
326;DHT22;150;52.352;14.058;2023-08-06T14:48:06;20.10;52.00
326;DHT22;150;52.352;14.058;2023-08-06T14:50:32;20.00;51.90
326;DHT22;150;52.352;14.058;2023-08-06T14:53:00;20.00;51.90
326;DHT22;150;52.352;14.058;2023-08-06T14:55:28;20.00;51.90
326;DHT22;150;52.352;14.058;2023-08-06T14:57:54;19.90;51.80
326;DHT22;150;52.352;14.058;2023-08-06T15:00:21;20.00;53.30
326;DHT22;150;52.352;14.058;2023-08-06T15:02:48;20.00;53.00
326;DHT22;150;52.352;14.058;2023-08-06T15:05:16;19.90;52.40
326;DHT22;150;52.352;14.058;2023-08-06T15:07:43;20.10;53.60
326;DHT22;150;52.352;14.058;2023-08-06T15:10:10;20.00;53.90
326;DHT22;150;52.352;14.058;2023-08-06T15:12:37;19.90;53.20
326;DHT22;150;52.352;14.058;2023-08-06T15:15:06;19.90;53.90
326;DHT22;150;52.352;14.058;2023-08-06T15:17:33;20.00;54.20
326;DHT22;150;52.352;14.058;2023-08-06T15:20:00;20.00;53.80
326;DHT22;150;52.352;14.058;2023-08-06T15:22:28;20.00;53.80
326;DHT22;150;52.352;14.058;2023-08-06T15:24:57;20.10;53.60
326;DHT22;150;52.352;14.058;2023-08-06T15:27:24;20.00;51.90
326;DHT22;150;52.352;14.058;2023-08-06T15:29:51;20.00;52.40
326;DHT22;150;52.352;14.058;2023-08-06T15:32:17;20.00;51.40
326;DHT22;150;52.352;14.058;2023-08-06T15:34:44;20.00;51.90
326;DHT22;150;52.352;14.058;2023-08-06T15:37:12;20.00;51.90
326;DHT22;150;52.352;14.058;2023-08-06T15:39:40;20.00;51.90
326;DHT22;150;52.352;14.058;2023-08-06T15:42:07;20.00;52.30
326;DHT22;150;52.352;14.058;2023-08-06T15:44:34;20.50;52.30
326;DHT22;150;52.352;14.058;2023-08-06T15:47:01;20.30;51.30
326;DHT22;150;52.352;14.058;2023-08-06T15:49:28;20.00;51.90
326;DHT22;150;52.352;14.058;2023-08-06T15:51:55;19.90;51.40
326;DHT22;150;52.352;14.058;2023-08-06T15:54:22;19.90;50.30
326;DHT22;150;52.352;14.058;2023-08-06T15:56:51;19.80;50.70
326;DHT22;150;52.352;14.058;2023-08-06T15:59:21;19.80;51.80
326;DHT22;150;52.352;14.058;2023-08-06T16:01:50;19.80;51.70
326;DHT22;150;52.352;14.058;2023-08-06T16:04:23;19.80;51.70
326;DHT22;150;52.352;14.058;2023-08-06T16:06:50;19.80;50.40
326;DHT22;150;52.352;14.058;2023-08-06T16:09:18;19.80;50.90
326;DHT22;150;52.352;14.058;2023-08-06T16:11:50;19.80;50.10
326;DHT22;150;52.352;14.058;2023-08-06T16:14:17;19.80;50.10
326;DHT22;150;52.352;14.058;2023-08-06T16:16:45;19.80;50.60
326;DHT22;150;52.352;14.058;2023-08-06T16:19:12;20.00;51.20
326;DHT22;150;52.352;14.058;2023-08-06T16:21:39;19.80;51.30
326;DHT22;150;52.352;14.058;2023-08-06T16:24:06;19.80;50.40
326;DHT22;150;52.352;14.058;2023-08-06T16:26:34;19.80;50.60
326;DHT22;150;52.352;14.058;2023-08-06T16:29:03;19.80;50.40
326;DHT22;150;52.352;14.058;2023-08-06T16:31:29;19.80;49.50
326;DHT22;150;52.352;14.058;2023-08-06T16:33:56;19.80;49.20
326;DHT22;150;52.352;14.058;2023-08-06T16:36:23;19.80;49.30